Time;durP1;ratioP1;P1;durP2;ratioP2;P2;SDS_P1;SDS_P2;PMS_P1;PMS_P2;Temp;Humidity;BMP_temperature;BMP_pressure;BME280_temperature;BME280_humidity;BME280_pressure;Samples;Min_cycle;Max_cycle;Signal;HPM_P1;HPM_P2
2022/03/31 00:01:52;;;;;;;10.47;7.40;;;4.10;1.00;;;;;;6277004;28;20510;-53
2022/03/31 00:04:55;;;;;;;7.83;7.13;;;4.20;1.00;;;;;;6278324;28;20473;-54
2022/03/31 00:07:59;;;;;;;8.90;7.63;;;4.00;1.00;;;;;;6273043;28;20293;-53
2022/03/31 00:11:08;;;;;;;8.83;7.90;;;4.00;1.00;;;;;;6282771;28;20645;-53
2022/03/31 00:14:11;;;;;;;7.10;6.70;;;4.30;1.00;;;;;;6274431;28;20233;-54
2022/03/31 00:17:16;;;;;;;8.60;7.67;;;4.20;1.00;;;;;;6282268;28;20286;-53
2022/03/31 00:20:18;;;;;;;8.27;7.33;;;3.80;1.00;;;;;;6278367;28;20283;-54
2022/03/31 00:23:21;;;;;;;8.20;7.60;;;4.20;1.00;;;;;;6276182;28;20297;-54
2022/03/31 00:26:24;;;;;;;7.50;7.00;;;3.90;1.00;;;;;;6283430;28;20772;-54
2022/03/31 00:29:27;;;;;;;8.30;7.70;;;3.90;1.00;;;;;;6273495;28;21080;-53
2022/03/31 00:32:32;;;;;;;8.00;7.30;;;3.90;1.00;;;;;;6283560;28;20237;-53
2022/03/31 00:35:35;;;;;;;7.97;7.33;;;3.70;1.00;;;;;;6283102;28;20625;-54
2022/03/31 00:38:37;;;;;;;7.60;7.00;;;3.90;1.00;;;;;;6266610;28;20728;-54
2022/03/31 00:41:40;;;;;;;7.93;7.30;;;3.70;1.00;;;;;;6282512;28;20245;-54
2022/03/31 00:44:43;;;;;;;7.33;6.73;;;3.60;1.00;;;;;;6279692;28;20241;-53
2022/03/31 00:47:48;;;;;;;7.77;7.27;;;3.70;1.00;;;;;;6274772;28;20714;-54
2022/03/31 00:50:51;;;;;;;7.63;7.13;;;3.60;1.00;;;;;;6282557;28;20699;-54
2022/03/31 00:53:54;;;;;;;7.70;7.00;;;3.60;1.00;;;;;;6276668;28;20713;-52
2022/03/31 00:56:58;;;;;;;7.70;7.10;;;3.80;1.00;;;;;;6281611;28;20516;-54
2022/03/31 01:00:01;;;;;;;7.70;7.20;;;3.70;1.00;;;;;;6270209;28;20265;-54
2022/03/31 01:03:09;;;;;;;7.67;6.97;;;3.70;1.00;;;;;;6277645;28;20363;-53
2022/03/31 01:06:12;;;;;;;8.40;7.70;;;3.40;1.00;;;;;;6270191;28;20243;-53
2022/03/31 01:09:14;;;;;;;7.73;7.10;;;3.30;1.00;;;;;;6273051;28;20299;-54
2022/03/31 01:12:17;;;;;;;7.93;7.33;;;3.30;1.00;;;;;;6280957;28;20241;-53
2022/03/31 01:15:21;;;;;;;8.97;7.30;;;3.50;1.00;;;;;;6278636;28;20237;-54
2022/03/31 01:18:25;;;;;;;7.23;6.73;;;3.40;1.00;;;;;;6268223;28;20678;-54
2022/03/31 01:21:27;;;;;;;8.27;7.47;;;3.00;1.00;;;;;;6281832;28;20282;-54
2022/03/31 01:24:31;;;;;;;8.13;7.37;;;3.30;1.00;;;;;;6277942;28;20237;-54
2022/03/31 01:27:36;;;;;;;7.43;6.93;;;3.10;1.00;;;;;;6279023;28;20380;-54
2022/03/31 01:30:39;;;;;;;7.97;7.43;;;3.20;1.00;;;;;;6278434;28;20237;-54
2022/03/31 01:33:41;;;;;;;7.07;6.57;;;3.20;1.00;;;;;;6281239;28;20370;-53
2022/03/31 01:36:44;;;;;;;7.13;6.63;;;3.30;1.00;;;;;;6277078;28;20333;-54
2022/03/31 01:39:48;;;;;;;7.93;7.23;;;3.20;1.00;;;;;;6274756;28;20316;-54
2022/03/31 01:42:51;;;;;;;8.10;7.30;;;3.10;1.00;;;;;;6280065;28;20566;-53
2022/03/31 01:45:54;;;;;;;9.17;7.27;;;2.90;1.00;;;;;;6281976;28;20260;-53
2022/03/31 01:48:57;;;;;;;7.27;6.87;;;3.00;1.00;;;;;;6276650;28;20275;-54
2022/03/31 01:52:00;;;;;;;7.70;6.97;;;3.00;1.00;;;;;;6280258;28;20244;-54
2022/03/31 01:55:06;;;;;;;7.63;7.03;;;2.80;1.00;;;;;;6278799;28;20279;-54
2022/03/31 01:58:09;;;;;;;7.77;7.00;;;2.70;1.00;;;;;;6279138;28;20225;-52
2022/03/31 02:01:12;;;;;;;7.87;7.13;;;2.70;1.00;;;;;;6282613;28;20290;-56
2022/03/31 02:04:18;;;;;;;6.80;6.27;;;2.60;1.00;;;;;;6286638;28;20241;-54
2022/03/31 02:07:22;;;;;;;7.17;6.73;;;2.70;1.00;;;;;;6278885;28;20283;-53
2022/03/31 02:10:26;;;;;;;7.17;6.60;;;2.70;1.00;;;;;;6280782;28;20309;-55
2022/03/31 02:13:29;;;;;;;7.80;7.13;;;2.60;1.00;;;;;;6284574;28;20370;-53
2022/03/31 02:16:32;;;;;;;7.60;6.90;;;2.60;1.00;;;;;;6287435;28;20452;-55
2022/03/31 02:19:35;;;;;;;7.10;6.50;;;2.70;1.00;;;;;;6269165;28;20608;-54
2022/03/31 02:22:39;;;;;;;7.37;6.87;;;2.70;1.00;;;;;;6278576;28;20706;-55
2022/03/31 02:25:43;;;;;;;6.60;6.10;;;2.40;1.00;;;;;;6272533;28;20275;-54
2022/03/31 02:28:46;;;;;;;7.07;6.50;;;2.30;1.00;;;;;;6269700;28;20334;-57
2022/03/31 02:31:49;;;;;;;7.10;6.37;;;2.30;1.00;;;;;;6277301;28;20272;-53
2022/03/31 02:34:52;;;;;;;7.17;6.17;;;2.40;1.00;;;;;;6285863;28;20709;-53
2022/03/31 02:37:55;;;;;;;6.97;6.37;;;2.30;1.00;;;;;;6278199;28;20860;-53
2022/03/31 02:41:07;;;;;;;7.00;6.40;;;2.40;1.00;;;;;;6286246;28;20241;-53
2022/03/31 02:44:10;;;;;;;7.07;6.67;;;2.20;1.00;;;;;;6271833;28;20360;-54
2022/03/31 02:47:12;;;;;;;7.00;6.40;;;2.20;1.00;;;;;;6271490;28;20236;-52
2022/03/31 02:50:17;;;;;;;9.63;6.43;;;2.20;1.00;;;;;;6278627;28;20507;-54
2022/03/31 02:56:43;;;;;;;6.97;6.30;;;2.40;1.00;;;;;;6278596;28;20281;-53
2022/03/31 02:59:46;;;;;;;6.73;6.23;;;2.00;1.00;;;;;;6276867;28;20611;-54
2022/03/31 03:02:49;;;;;;;7.13;6.53;;;2.20;1.00;;;;;;6285153;28;20275;-54
2022/03/31 03:05:53;;;;;;;6.93;6.33;;;2.20;1.00;;;;;;6279266;28;20547;-53
2022/03/31 03:08:56;;;;;;;6.53;6.13;;;2.30;1.00;;;;;;6273682;28;20229;-54
2022/03/31 03:12:00;;;;;;;8.27;6.90;;;2.10;1.00;;;;;;6285145;28;20793;-54
2022/03/31 03:15:03;;;;;;;6.57;6.07;;;1.90;1.00;;;;;;6278664;28;20285;-53
2022/03/31 03:18:06;;;;;;;7.20;6.50;;;2.10;1.00;;;;;;6277970;28;20414;-54
2022/03/31 03:21:09;;;;;;;6.63;6.23;;;1.90;1.00;;;;;;6277111;28;20229;-53
2022/03/31 03:24:12;;;;;;;6.60;6.00;;;1.80;1.00;;;;;;6270281;28;20240;-53
2022/03/31 03:27:16;;;;;;;9.83;6.87;;;1.80;1.00;;;;;;6268298;28;20238;-54
2022/03/31 03:30:20;;;;;;;6.97;6.57;;;1.80;1.00;;;;;;6276963;28;20706;-53
2022/03/31 03:33:23;;;;;;;6.97;6.47;;;1.70;1.00;;;;;;6266369;28;20237;-53
2022/03/31 03:36:27;;;;;;;8.13;6.60;;;1.90;1.00;;;;;;6272484;28;20261;-54
2022/03/31 03:39:30;;;;;;;8.37;6.30;;;1.70;1.00;;;;;;6280940;28;20611;-53
2022/03/31 03:42:34;;;;;;;7.03;6.40;;;1.60;1.00;;;;;;6280890;28;20456;-53
2022/03/31 03:45:38;;;;;;;6.40;6.00;;;1.60;1.00;;;;;;6284062;28;20320;-53
2022/03/31 03:48:41;;;;;;;7.10;6.40;;;1.90;1.00;;;;;;6275861;28;20230;-54
2022/03/31 03:51:43;;;;;;;8.10;6.50;;;1.70;1.00;;;;;;6270735;28;20233;-54
2022/03/31 03:54:46;;;;;;;6.40;6.00;;;1.60;1.00;;;;;;6282703;28;20302;-54
2022/03/31 03:57:50;;;;;;;6.33;5.90;;;1.50;1.00;;;;;;6280608;28;20253;-55
2022/03/31 04:00:54;;;;;;;6.63;6.23;;;1.50;1.00;;;;;;6283916;28;20309;-53
2022/03/31 04:03:57;;;;;;;6.80;5.90;;;1.60;1.00;;;;;;6282965;28;20233;-53
2022/03/31 04:07:00;;;;;;;6.57;6.10;;;1.60;1.00;;;;;;6281884;28;20325;-53
2022/03/31 04:10:03;;;;;;;6.70;6.07;;;1.30;1.00;;;;;;6274163;28;20342;-54
2022/03/31 04:13:07;;;;;;;6.47;5.90;;;1.30;1.00;;;;;;6280712;28;20249;-53
2022/03/31 04:16:10;;;;;;;5.87;5.47;;;1.30;1.00;;;;;;6272165;28;20520;-54
2022/03/31 04:19:13;;;;;;;6.87;6.37;;;1.30;1.00;;;;;;6275746;28;20282;-54
2022/03/31 04:22:15;;;;;;;6.50;6.10;;;1.30;1.00;;;;;;6278500;28;20293;-53
2022/03/31 04:25:18;;;;;;;5.90;5.50;;;1.20;1.00;;;;;;6280963;28;20306;-53
2022/03/31 04:28:22;;;;;;;6.07;5.73;;;1.40;1.00;;;;;;6275423;28;20302;-53
2022/03/31 04:31:26;;;;;;;5.93;5.50;;;1.40;1.00;;;;;;6279859;28;20238;-52
2022/03/31 04:34:29;;;;;;;6.10;5.50;;;1.20;1.00;;;;;;6285613;28;20866;-53
2022/03/31 04:37:33;;;;;;;6.07;5.77;;;1.30;1.00;;;;;;6277229;28;20239;-54
2022/03/31 04:40:36;;;;;;;6.20;5.70;;;1.20;1.00;;;;;;6282435;28;20233;-52
2022/03/31 04:43:40;;;;;;;6.63;6.00;;;1.10;1.00;;;;;;6281983;28;20271;-55
2022/03/31 04:46:43;;;;;;;7.67;5.07;;;1.10;1.00;;;;;;6275692;28;20608;-53
2022/03/31 04:49:46;;;;;;;6.37;5.83;;;1.10;1.00;;;;;;6273849;28;20243;-53
2022/03/31 04:52:49;;;;;;;6.30;5.80;;;1.10;1.00;;;;;;6280070;28;20452;-54
2022/03/31 04:55:55;;;;;;;5.67;5.27;;;0.90;1.00;;;;;;6290338;28;20237;-54
2022/03/31 04:59:00;;;;;;;5.90;5.40;;;1.30;1.00;;;;;;6274761;28;20526;-53
2022/03/31 05:02:03;;;;;;;6.03;5.63;;;1.10;1.00;;;;;;6281047;28;20725;-53
2022/03/31 05:05:07;;;;;;;5.70;5.40;;;1.00;1.00;;;;;;6278150;28;20745;-53
2022/03/31 05:08:10;;;;;;;5.50;5.00;;;1.00;1.00;;;;;;6283371;28;20284;-53
2022/03/31 05:11:13;;;;;;;5.83;5.43;;;1.10;1.00;;;;;;6270763;28;20236;-54
2022/03/31 05:14:17;;;;;;;7.23;5.40;;;0.90;1.00;;;;;;6281780;28;20243;-53
2022/03/31 05:17:20;;;;;;;5.73;5.43;;;0.90;1.00;;;;;;6280807;28;20236;-54
2022/03/31 05:20:23;;;;;;;5.63;5.33;;;0.80;1.00;;;;;;6271166;28;21461;-54
2022/03/31 05:23:26;;;;;;;5.30;5.00;;;1.10;1.00;;;;;;6288830;28;20582;-53
2022/03/31 05:26:29;;;;;;;8.40;6.53;;;1.10;1.00;;;;;;6285819;28;20244;-54
2022/03/31 05:29:34;;;;;;;6.80;5.70;;;1.10;1.00;;;;;;6275339;28;20320;-55
2022/03/31 05:32:38;;;;;;;5.90;5.40;;;1.10;1.00;;;;;;6275680;28;20248;-52
2022/03/31 05:35:41;;;;;;;5.87;5.47;;;1.00;1.00;;;;;;6287798;28;20283;-54
2022/03/31 05:38:44;;;;;;;5.97;5.57;;;1.20;1.00;;;;;;6277741;28;20768;-53
2022/03/31 05:41:47;;;;;;;5.77;5.37;;;1.00;1.00;;;;;;6287058;28;20249;-53
2022/03/31 05:44:51;;;;;;;7.13;5.17;;;1.10;1.00;;;;;;6285554;28;20233;-55
2022/03/31 05:47:54;;;;;;;6.57;5.47;;;1.20;1.00;;;;;;6285035;28;20233;-53
2022/03/31 05:50:56;;;;;;;6.10;5.50;;;1.20;1.00;;;;;;6286121;28;20624;-54
2022/03/31 05:54:01;;;;;;;5.43;5.13;;;1.00;1.00;;;;;;6285049;28;20241;-53
2022/03/31 05:57:06;;;;;;;6.13;5.47;;;1.40;1.00;;;;;;6278836;28;20237;-54
2022/03/31 06:00:13;;;;;;;5.90;5.40;;;1.20;1.00;;;;;;6286141;28;20229;-55
2022/03/31 06:03:21;;;;;;;6.13;5.57;;;1.10;1.00;;;;;;6279819;28;20237;-55
2022/03/31 06:06:25;;;;;;;6.00;5.60;;;1.20;1.00;;;;;;6289655;28;20290;-54
2022/03/31 06:09:27;;;;;;;6.27;5.60;;;1.20;1.00;;;;;;6278961;28;20375;-55
2022/03/31 06:12:31;;;;;;;15.77;6.30;;;1.30;1.00;;;;;;6281807;28;20410;-54
2022/03/31 06:15:37;;;;;;;5.83;5.43;;;1.60;1.00;;;;;;6269732;28;20276;-53
2022/03/31 06:18:40;;;;;;;6.13;5.53;;;1.50;1.00;;;;;;6281297;28;20657;-53
2022/03/31 06:21:43;;;;;;;5.60;5.20;;;1.70;1.00;;;;;;6284582;28;20233;-52
2022/03/31 06:24:46;;;;;;;6.80;6.30;;;1.60;1.00;;;;;;6286677;28;20782;-53
2022/03/31 06:27:49;;;;;;;6.60;6.00;;;1.50;1.00;;;;;;6280601;28;20246;-54
2022/03/31 06:30:53;;;;;;;5.93;5.50;;;1.70;1.00;;;;;;6283653;28;20312;-54
2022/03/31 06:33:55;;;;;;;6.33;5.73;;;1.60;1.00;;;;;;6278337;28;20262;-54
2022/03/31 06:36:58;;;;;;;9.57;6.07;;;1.80;1.00;;;;;;6285770;28;20309;-54
2022/03/31 06:40:01;;;;;;;6.20;5.40;;;1.60;1.00;;;;;;6281208;28;20266;-52
2022/03/31 06:43:04;;;;;;;6.47;5.73;;;1.60;1.00;;;;;;6276343;28;20356;-54
2022/03/31 06:46:09;;;;;;;6.97;6.17;;;1.60;1.00;;;;;;6279434;28;20638;-54
2022/03/31 06:49:11;;;;;;;6.27;5.70;;;1.90;1.00;;;;;;6285774;28;20613;-54
2022/03/31 06:52:14;;;;;;;6.73;6.23;;;1.90;1.00;;;;;;6283518;28;20251;-53
2022/03/31 06:55:17;;;;;;;6.00;5.60;;;2.10;1.00;;;;;;6276381;28;20256;-54
2022/03/31 06:58:21;;;;;;;6.13;5.70;;;2.20;1.00;;;;;;6281301;28;20758;-54
2022/03/31 07:01:26;;;;;;;6.07;5.67;;;2.30;1.00;;;;;;6283085;28;20364;-54
2022/03/31 07:04:29;;;;;;;5.97;5.43;;;2.30;1.00;;;;;;6285427;28;20244;-53
2022/03/31 07:07:32;;;;;;;6.03;5.73;;;2.70;1.00;;;;;;6280798;28;20237;-54
2022/03/31 07:10:35;;;;;;;5.93;5.60;;;2.80;1.00;;;;;;6280804;28;20736;-54
2022/03/31 07:13:38;;;;;;;6.63;6.03;;;2.90;1.00;;;;;;6285079;28;20252;-59
2022/03/31 07:16:42;;;;;;;5.43;5.13;;;2.80;1.00;;;;;;6283133;28;20479;-54
2022/03/31 07:19:45;;;;;;;5.97;5.43;;;2.80;1.00;;;;;;6283573;28;20249;-54
2022/03/31 07:22:48;;;;;;;8.30;5.97;;;2.90;1.00;;;;;;6284287;28;20652;-53
2022/03/31 07:25:52;;;;;;;6.53;6.03;;;2.80;1.00;;;;;;6281478;28;20264;-54
2022/03/31 07:28:56;;;;;;;6.30;5.90;;;2.80;1.00;;;;;;6281442;28;20272;-54
2022/03/31 07:32:00;;;;;;;6.63;6.03;;;3.00;1.00;;;;;;6284325;28;20264;-53
2022/03/31 07:35:03;;;;;;;7.90;5.97;;;2.90;1.00;;;;;;6283806;28;20706;-54
2022/03/31 07:38:07;;;;;;;6.90;6.40;;;3.10;1.00;;;;;;6272561;28;20234;-53
2022/03/31 07:41:11;;;;;;;6.10;5.60;;;3.30;1.00;;;;;;6277416;28;20282;-53
2022/03/31 07:44:14;;;;;;;6.37;5.90;;;3.00;1.00;;;;;;6282231;28;20399;-54
2022/03/31 07:47:18;;;;;;;7.00;6.40;;;3.20;1.00;;;;;;6281397;28;20367;-53
2022/03/31 07:50:21;;;;;;;6.10;5.70;;;3.20;1.00;;;;;;6283405;28;20779;-54
2022/03/31 07:53:25;;;;;;;6.70;6.00;;;3.50;1.00;;;;;;6283243;28;20330;-53
2022/03/31 07:56:27;;;;;;;6.33;5.93;;;3.60;1.00;;;;;;6279683;28;20320;-53
2022/03/31 07:59:33;;;;;;;6.73;6.03;;;3.80;1.00;;;;;;6280036;28;20233;-53
2022/03/31 08:02:40;;;;;;;7.23;6.17;;;4.00;1.00;;;;;;6283379;28;20689;-54
2022/03/31 08:05:42;;;;;;;6.77;5.67;;;3.90;1.00;;;;;;6281436;28;20237;-52
2022/03/31 08:08:45;;;;;;;6.43;5.93;;;4.30;1.00;;;;;;6280049;28;20756;-54
2022/03/31 08:11:49;;;;;;;6.13;5.60;;;4.50;1.00;;;;;;6286476;28;20717;-54
2022/03/31 08:14:52;;;;;;;11.07;6.13;;;4.50;1.00;;;;;;6275780;28;20241;-53
2022/03/31 08:17:56;;;;;;;6.80;6.07;;;4.80;1.00;;;;;;6282133;28;20698;-54
2022/03/31 08:20:59;;;;;;;5.77;5.40;;;4.90;1.00;;;;;;6280881;28;20316;-53
2022/03/31 08:24:02;;;;;;;6.40;6.10;;;4.50;1.00;;;;;;6281475;28;20656;-54
2022/03/31 08:27:05;;;;;;;6.53;6.07;;;5.20;1.00;;;;;;6282516;28;20428;-53
2022/03/31 08:30:11;;;;;;;7.87;5.77;;;5.20;1.00;;;;;;6280476;28;20824;-54
2022/03/31 08:33:15;;;;;;;8.20;5.50;;;5.30;1.00;;;;;;6277656;28;20318;-53
2022/03/31 08:36:20;;;;;;;7.23;6.23;;;5.30;1.00;;;;;;6283136;28;20256;-54
2022/03/31 08:39:23;;;;;;;7.03;5.40;;;5.50;1.00;;;;;;6276669;28;20248;-53
2022/03/31 08:42:26;;;;;;;6.43;6.03;;;5.90;1.00;;;;;;6273264;28;20237;-54
2022/03/31 08:45:34;;;;;;;7.73;5.80;;;5.60;1.00;;;;;;6282744;28;20302;-53
2022/03/31 08:48:39;;;;;;;6.93;6.13;;;5.70;1.00;;;;;;6274668;28;20289;-53
2022/03/31 08:51:44;;;;;;;7.10;6.23;;;5.70;1.00;;;;;;6282457;28;20792;-54
2022/03/31 08:54:46;;;;;;;8.00;7.30;;;5.50;1.00;;;;;;6276454;28;20303;-54
2022/03/31 08:57:54;;;;;;;8.67;6.30;;;5.70;1.00;;;;;;6276694;28;20320;-53
2022/03/31 09:00:57;;;;;;;7.53;5.97;;;6.20;1.00;;;;;;6283226;28;20249;-54
2022/03/31 09:04:02;;;;;;;6.60;6.10;;;6.30;1.00;;;;;;6282601;28;20318;-54
2022/03/31 09:07:18;;;;;;;11.80;6.50;;;6.30;1.00;;;;;;6276604;28;20589;-54
2022/03/31 09:10:29;;;;;;;7.00;6.50;;;6.50;1.00;;;;;;6279128;28;20233;-54
2022/03/31 09:13:36;;;;;;;6.60;6.10;;;6.40;1.00;;;;;;6281759;28;20387;-54
2022/03/31 09:16:40;;;;;;;6.73;6.07;;;6.60;1.00;;;;;;6281908;28;20352;-54
2022/03/31 09:19:44;;;;;;;6.97;5.70;;;6.50;1.00;;;;;;6281444;28;20233;-54
2022/03/31 09:22:48;;;;;;;7.57;6.37;;;6.40;1.00;;;;;;6279742;28;20232;-54
2022/03/31 09:25:53;;;;;;;8.97;6.67;;;6.40;1.00;;;;;;6285055;28;20713;-54
2022/03/31 09:28:56;;;;;;;6.47;6.07;;;6.80;1.00;;;;;;6279066;28;20256;-54
2022/03/31 09:32:10;;;;;;;6.90;6.20;;;6.70;1.00;;;;;;6279613;28;20451;-55
2022/03/31 09:35:16;;;;;;;10.03;6.20;;;6.70;1.00;;;;;;6286425;28;20260;-55
2022/03/31 09:38:19;;;;;;;6.50;6.10;;;6.60;1.00;;;;;;6276654;28;20309;-55
2022/03/31 09:41:23;;;;;;;11.77;6.80;;;6.50;1.00;;;;;;6274788;28;20383;-54
2022/03/31 09:44:26;;;;;;;13.67;6.60;;;6.50;1.00;;;;;;6279247;28;20418;-54
2022/03/31 09:47:29;;;;;;;6.73;6.17;;;6.70;1.00;;;;;;6273324;28;20255;-54
2022/03/31 09:50:36;;;;;;;7.03;6.43;;;6.80;1.00;;;;;;6277519;28;20225;-55
2022/03/31 09:53:41;;;;;;;7.33;6.73;;;6.90;1.00;;;;;;6276625;28;20314;-52
2022/03/31 09:56:44;;;;;;;10.10;6.93;;;7.00;1.00;;;;;;6281270;28;20776;-53
2022/03/31 09:59:51;;;;;;;6.80;6.13;;;7.10;1.00;;;;;;6274054;28;20324;-54
2022/03/31 10:02:54;;;;;;;6.73;6.20;;;7.20;1.00;;;;;;6279824;28;20233;-54
2022/03/31 10:06:18;;;;;;;7.73;6.63;;;7.30;1.00;;;;;;6269313;28;20253;-51
2022/03/31 10:09:23;;;;;;;8.23;7.20;;;7.50;1.00;;;;;;6281999;28;20301;-53
2022/03/31 10:12:32;;;;;;;8.47;6.77;;;7.60;1.00;;;;;;6287656;28;20241;-54
2022/03/31 10:15:36;;;;;;;7.40;6.80;;;7.80;1.00;;;;;;6284868;28;20746;-53
2022/03/31 10:18:40;;;;;;;8.70;6.80;;;7.90;1.00;;;;;;6284286;28;20287;-54
2022/03/31 10:21:44;;;;;;;9.07;7.07;;;7.90;1.00;;;;;;6284719;28;20251;-54
2022/03/31 10:24:53;;;;;;;7.63;6.90;;;8.00;1.00;;;;;;6285138;28;20367;-55
2022/03/31 10:27:56;;;;;;;9.97;7.00;;;8.00;1.00;;;;;;6284865;28;20244;-53
2022/03/31 10:31:02;;;;;;;9.90;6.80;;;8.20;1.00;;;;;;6282905;28;20252;-53
2022/03/31 10:34:06;;;;;;;7.43;6.20;;;8.10;1.00;;;;;;6286066;28;20252;-54
2022/03/31 10:37:10;;;;;;;6.97;6.37;;;8.20;99.90;;;;;;6276270;28;20260;-52
2022/03/31 10:40:13;;;;;;;7.77;7.07;;;8.10;99.90;;;;;;6279186;28;20753;-54
2022/03/31 10:43:23;;;;;;;8.27;7.40;;;8.10;1.00;;;;;;6284781;28;20314;-54
2022/03/31 10:46:28;;;;;;;7.57;7.07;;;8.10;1.00;;;;;;6278481;28;20324;-55
2022/03/31 10:49:32;;;;;;;7.60;7.03;;;8.20;1.00;;;;;;6280827;28;20244;-53
2022/03/31 10:52:36;;;;;;;6.90;6.40;;;8.30;99.90;;;;;;6285283;28;20225;-55
2022/03/31 10:55:41;;;;;;;7.57;6.97;;;8.40;99.90;;;;;;6280694;28;20303;-55
2022/03/31 10:58:44;;;;;;;8.10;7.03;;;8.50;99.90;;;;;;6272602;28;20328;-54
2022/03/31 11:01:49;;;;;;;13.67;7.07;;;8.50;99.90;;;;;;6281806;28;20322;-55
2022/03/31 11:04:55;;;;;;;8.03;7.23;;;8.50;99.90;;;;;;6282634;28;20832;-54
2022/03/31 11:08:07;;;;;;;6.83;6.20;;;8.50;99.90;;;;;;6280511;28;20225;-53
2022/03/31 11:11:09;;;;;;;10.83;7.80;;;8.60;99.90;;;;;;6280568;28;20584;-53
2022/03/31 11:14:12;;;;;;;7.87;6.67;;;8.60;99.90;;;;;;6279648;28;20319;-54
2022/03/31 11:17:20;;;;;;;8.37;7.37;;;8.90;99.90;;;;;;6285016;28;20370;-54
2022/03/31 11:20:24;;;;;;;11.20;6.83;;;8.80;99.90;;;;;;6277387;28;20237;-55
2022/03/31 11:23:30;;;;;;;7.47;6.90;;;8.90;99.90;;;;;;6282699;28;20261;-55
2022/03/31 11:26:35;;;;;;;13.00;6.83;;;9.00;99.90;;;;;;6284308;28;20335;-53
2022/03/31 11:29:38;;;;;;;14.17;6.57;;;9.00;99.90;;;;;;6278165;28;20555;-55
2022/03/31 11:32:43;;;;;;;8.87;7.13;;;9.00;99.90;;;;;;6283229;28;20316;-54
2022/03/31 11:35:51;;;;;;;14.50;7.10;;;9.00;99.90;;;;;;6286065;28;20240;-54
2022/03/31 11:38:57;;;;;;;8.00;7.23;;;9.20;99.90;;;;;;6276621;28;20226;-53
2022/03/31 11:42:01;;;;;;;8.43;7.03;;;9.10;99.90;;;;;;6282317;28;20233;-53
2022/03/31 11:45:04;;;;;;;11.07;7.13;;;9.00;99.90;;;;;;6280962;28;20325;-54
2022/03/31 11:48:09;;;;;;;10.30;7.00;;;8.70;99.90;;;;;;6269803;28;20712;-53
2022/03/31 11:51:13;;;;;;;30.67;7.90;;;8.60;99.90;;;;;;6269313;28;20533;-54
2022/03/31 11:54:17;;;;;;;9.30;6.83;;;8.80;99.90;;;;;;6282947;28;20778;-54
2022/03/31 11:57:22;;;;;;;8.07;6.73;;;9.00;99.90;;;;;;6291464;28;20319;-59
2022/03/31 12:00:27;;;;;;;13.83;7.43;;;9.10;99.90;;;;;;6280634;28;20265;-55
2022/03/31 12:03:35;;;;;;;7.93;7.00;;;9.30;99.90;;;;;;6284573;28;20225;-53
2022/03/31 12:06:38;;;;;;;9.47;7.33;;;9.40;99.90;;;;;;6284732;28;20236;-55
2022/03/31 12:09:43;;;;;;;7.53;6.97;;;9.50;99.90;;;;;;6281487;28;20229;-54
2022/03/31 12:12:47;;;;;;;7.57;6.80;;;9.40;99.90;;;;;;6282356;28;20770;-55
2022/03/31 12:15:50;;;;;;;11.47;7.50;;;9.40;99.90;;;;;;6283652;28;20241;-54
2022/03/31 12:18:54;;;;;;;14.50;6.77;;;9.40;99.90;;;;;;6274768;28;20528;-53
2022/03/31 12:21:58;;;;;;;7.97;7.17;;;9.40;99.90;;;;;;6281860;28;20746;-53
2022/03/31 12:25:03;;;;;;;9.90;6.97;;;9.40;99.90;;;;;;6279627;28;20266;-53
2022/03/31 12:28:08;;;;;;;11.30;7.43;;;9.40;99.90;;;;;;6276480;28;20233;-53
2022/03/31 12:31:22;;;;;;;9.33;6.73;;;9.20;99.90;;;;;;6280846;28;20392;-53
2022/03/31 12:34:25;;;;;;;9.23;7.07;;;9.20;99.90;;;;;;6276053;28;20260;-54
2022/03/31 12:37:29;;;;;;;10.23;6.67;;;9.30;99.90;;;;;;6281112;28;20244;-56
2022/03/31 12:40:33;;;;;;;7.37;6.70;;;9.30;99.90;;;;;;6262875;28;20705;-55
2022/03/31 12:43:36;;;;;;;7.13;6.53;;;9.40;99.90;;;;;;6273477;28;20324;-55
2022/03/31 12:46:42;;;;;;;7.57;6.97;;;9.40;99.90;;;;;;6280775;28;20339;-55
2022/03/31 12:49:51;;;;;;;8.00;7.23;;;9.60;99.90;;;;;;6277550;28;20236;-53
2022/03/31 12:52:55;;;;;;;7.40;6.70;;;9.70;99.90;;;;;;6282367;28;20233;-53
2022/03/31 12:56:00;;;;;;;12.30;6.53;;;9.60;99.90;;;;;;6280607;28;20365;-54
2022/03/31 12:59:02;;;;;;;7.67;6.90;;;9.60;99.90;;;;;;6274354;28;20539;-54
2022/03/31 13:02:07;;;;;;;8.80;7.23;;;9.70;99.90;;;;;;6280282;28;20237;-54
2022/03/31 13:05:10;;;;;;;11.47;6.90;;;9.70;99.90;;;;;;6281556;28;20301;-53
2022/03/31 13:08:13;;;;;;;6.93;6.40;;;9.50;99.90;;;;;;6275610;28;20641;-52
2022/03/31 13:11:17;;;;;;;5.77;5.40;;;9.50;99.90;;;;;;6278261;28;20601;-53
2022/03/31 13:14:20;;;;;;;6.23;5.90;;;9.60;99.90;;;;;;6281383;28;20578;-54
2022/03/31 13:17:23;;;;;;;6.27;5.70;;;9.70;99.90;;;;;;6281204;28;20786;-54
2022/03/31 13:20:26;;;;;;;6.53;6.13;;;9.70;99.90;;;;;;6277978;28;20467;-54
2022/03/31 13:23:28;;;;;;;6.20;5.70;;;9.60;99.90;;;;;;6281883;28;20229;-53
2022/03/31 13:26:33;;;;;;;9.73;5.73;;;9.50;99.90;;;;;;6281085;28;20844;-54
2022/03/31 13:29:36;;;;;;;6.23;5.70;;;9.30;99.90;;;;;;6275706;28;20313;-54
2022/03/31 13:32:39;;;;;;;6.00;5.50;;;9.30;99.90;;;;;;6281855;28;20678;-51
2022/03/31 13:35:42;;;;;;;10.63;7.40;;;9.50;99.90;;;;;;6278858;28;20675;-53
2022/03/31 13:38:45;;;;;;;6.20;5.60;;;9.50;99.90;;;;;;6284066;28;20322;-53
2022/03/31 13:41:49;;;;;;;7.57;5.40;;;9.50;99.90;;;;;;6283020;28;20242;-60
2022/03/31 13:44:53;;;;;;;5.57;5.07;;;9.50;99.90;;;;;;6285890;28;20240;-54
2022/03/31 13:47:56;;;;;;;6.90;6.00;;;9.50;99.90;;;;;;6280873;28;20321;-54
2022/03/31 13:50:59;;;;;;;6.90;5.90;;;9.50;99.90;;;;;;6286437;28;20312;-54
2022/03/31 13:54:06;;;;;;;7.13;6.10;;;9.60;99.90;;;;;;6285510;28;20683;-53
2022/03/31 14:03:52;;;;;;;7.97;4.97;;;9.70;99.90;;;;;;6283478;28;20622;-54
2022/03/31 14:06:56;;;;;;;6.20;4.50;;;9.50;99.90;;;;;;6286268;28;20299;-54
2022/03/31 14:09:59;;;;;;;6.30;5.07;;;9.50;99.90;;;;;;6283121;28;20332;-54
2022/03/31 14:13:03;;;;;;;9.07;4.77;;;9.40;99.90;;;;;;6294349;28;20725;-54
2022/03/31 14:16:07;;;;;;;6.47;4.77;;;9.20;99.90;;;;;;6284940;28;20244;-54
2022/03/31 14:19:12;;;;;;;5.37;4.70;;;9.10;99.90;;;;;;6262075;28;20239;-51
2022/03/31 14:22:15;;;;;;;6.20;5.60;;;9.10;99.90;;;;;;6286445;28;20237;-53
2022/03/31 14:25:19;;;;;;;5.13;4.37;;;9.00;99.90;;;;;;6280464;28;20593;-54
2022/03/31 14:28:23;;;;;;;4.50;4.37;;;9.00;99.90;;;;;;6271715;28;20273;-54
2022/03/31 14:31:26;;;;;;;5.23;4.57;;;9.00;99.90;;;;;;6279389;28;20234;-55
2022/03/31 14:34:36;;;;;;;6.53;5.93;;;9.10;99.90;;;;;;6285401;28;20232;-54
2022/03/31 14:37:39;;;;;;;14.83;8.57;;;9.00;99.90;;;;;;6278201;28;20287;-54
2022/03/31 14:40:42;;;;;;;9.33;5.60;;;8.90;99.90;;;;;;6285328;28;20257;-54
2022/03/31 14:43:50;;;;;;;8.53;4.73;;;8.90;99.90;;;;;;6280325;28;20270;-55
2022/03/31 14:46:53;;;;;;;5.07;4.70;;;8.80;99.90;;;;;;6285279;28;20240;-54
2022/03/31 14:49:56;;;;;;;7.97;4.57;;;8.60;99.90;;;;;;6286278;28;20318;-54
2022/03/31 14:52:59;;;;;;;4.70;4.33;;;8.60;99.90;;;;;;6280688;28;20331;-54
2022/03/31 14:56:03;;;;;;;4.40;4.20;;;8.60;99.90;;;;;;6286366;28;20355;-55
2022/03/31 14:59:07;;;;;;;6.97;4.20;;;8.60;99.90;;;;;;6282553;28;20612;-53
2022/03/31 15:02:10;;;;;;;9.27;4.20;;;8.50;99.90;;;;;;6283672;28;21036;-54
2022/03/31 15:05:13;;;;;;;4.93;4.40;;;8.40;99.90;;;;;;6281297;28;20792;-53
2022/03/31 15:08:15;;;;;;;5.60;4.33;;;8.40;99.90;;;;;;6285867;28;20233;-54
2022/03/31 15:14:41;;;;;;;7.27;4.27;;;8.40;99.90;;;;;;6287733;28;20407;-57
2022/03/31 15:17:44;;;;;;;7.87;4.43;;;8.30;99.90;;;;;;6284071;28;20241;-54
2022/03/31 15:20:47;;;;;;;6.30;4.50;;;8.30;99.90;;;;;;6284711;28;20721;-55
2022/03/31 15:23:49;;;;;;;12.33;4.17;;;8.30;99.90;;;;;;6283220;28;20260;-54
2022/03/31 15:26:52;;;;;;;4.20;3.83;;;8.20;99.90;;;;;;6273809;28;20242;-56
2022/03/31 15:29:56;;;;;;;4.50;4.20;;;8.20;99.90;;;;;;6273025;28;20243;-54
2022/03/31 15:32:59;;;;;;;4.40;4.00;;;8.20;99.90;;;;;;6282699;28;20243;-54
2022/03/31 15:36:01;;;;;;;4.67;4.30;;;8.20;99.90;;;;;;6285228;28;20529;-53
2022/03/31 15:39:04;;;;;;;9.37;4.03;;;8.20;99.90;;;;;;6280502;28;20263;-54
2022/03/31 15:42:28;;;;;;;5.00;4.53;;;8.20;99.90;;;;;;6281299;28;21723;-54
2022/03/31 15:45:32;;;;;;;4.97;4.57;;;8.10;99.90;;;;;;6283041;28;20295;-53
2022/03/31 15:48:35;;;;;;;5.87;4.57;;;8.20;99.90;;;;;;6277814;28;20478;-54
2022/03/31 15:51:37;;;;;;;4.83;4.40;;;8.20;99.90;;;;;;6283757;28;20714;-54
2022/03/31 15:54:40;;;;;;;5.17;3.73;;;8.20;99.90;;;;;;6283575;28;20245;-54
2022/03/31 15:57:43;;;;;;;6.50;3.80;;;8.10;99.90;;;;;;6282379;28;20324;-55
2022/03/31 16:00:47;;;;;;;4.73;4.30;;;8.00;99.90;;;;;;6283358;28;20302;-53
2022/03/31 16:03:50;;;;;;;5.00;4.17;;;8.00;99.90;;;;;;6284995;28;20451;-54
2022/03/31 16:06:53;;;;;;;4.07;3.87;;;8.00;99.90;;;;;;6274946;28;20256;-54
2022/03/31 16:09:55;;;;;;;4.30;4.00;;;7.90;99.90;;;;;;6279466;28;20268;-54
2022/03/31 16:12:58;;;;;;;4.70;4.27;;;8.00;99.90;;;;;;6272990;28;20495;-51
2022/03/31 16:16:02;;;;;;;4.07;3.70;;;7.90;99.90;;;;;;6279779;28;20237;-54
2022/03/31 16:19:06;;;;;;;8.00;4.47;;;8.00;99.90;;;;;;6277504;28;20248;-55
2022/03/31 16:22:08;;;;;;;10.83;4.20;;;7.90;99.90;;;;;;6283263;28;20587;-53
2022/03/31 16:25:11;;;;;;;11.80;4.30;;;7.90;99.90;;;;;;6276677;28;20241;-53
2022/03/31 16:28:14;;;;;;;11.40;3.87;;;7.90;99.90;;;;;;6278191;28;20325;-54
2022/03/31 16:31:18;;;;;;;8.80;4.33;;;7.90;99.90;;;;;;6278318;28;20230;-54